createdAt,value
2023-01-07T00:01:41.933Z,10.77
2023-01-07T00:04:11.964Z,10.88
2023-01-07T00:06:39.999Z,11.93
2023-01-07T00:09:08.256Z,14.82
2023-01-07T00:11:37.470Z,14.65
2023-01-07T00:14:05.697Z,14.00
2023-01-07T00:16:34.323Z,12.07
2023-01-07T00:19:02.461Z,11.25
2023-01-07T00:21:29.897Z,11.32
2023-01-07T00:24:01.619Z,9.77
2023-01-07T00:26:32.658Z,10.75
2023-01-07T00:29:00.136Z,9.38
2023-01-07T00:31:32.306Z,11.35
2023-01-07T00:33:59.375Z,10.40
2023-01-07T00:36:31.396Z,9.82
2023-01-07T00:39:30.354Z,8.48
2023-01-07T00:42:15.157Z,7.82
2023-01-07T00:44:41.749Z,6.97
2023-01-07T00:47:08.324Z,5.43
2023-01-07T00:49:34.953Z,6.00
2023-01-07T00:52:01.522Z,6.20
2023-01-07T00:54:28.231Z,5.60
2023-01-07T00:56:54.766Z,5.95
2023-01-07T00:59:21.357Z,5.90
2023-01-07T01:01:47.998Z,4.57
2023-01-07T01:04:15.165Z,4.40
2023-01-07T01:06:41.724Z,5.70
2023-01-07T01:09:08.903Z,6.05
2023-01-07T01:11:35.460Z,7.05
2023-01-07T01:14:02.059Z,7.43
2023-01-07T01:16:28.693Z,7.18
2023-01-07T01:18:55.273Z,6.72
2023-01-07T01:21:21.905Z,6.60
2023-01-07T01:23:48.494Z,7.00
2023-01-07T01:26:17.246Z,6.38
2023-01-07T01:28:44.951Z,6.38
2023-01-07T01:31:11.969Z,6.20
2023-01-07T01:33:38.780Z,6.43
2023-01-07T01:36:08.087Z,5.38
2023-01-07T01:38:34.651Z,5.72
2023-01-07T01:41:01.364Z,5.97
2023-01-07T01:43:35.113Z,5.82
2023-01-07T01:46:34.287Z,6.78
2023-01-07T01:49:08.085Z,7.43
2023-01-07T01:51:38.933Z,5.45
2023-01-07T01:54:08.923Z,5.40
2023-01-07T01:56:40.748Z,5.70
2023-01-07T01:59:12.137Z,5.78
2023-01-07T02:01:39.016Z,6.93
2023-01-07T02:04:10.562Z,7.25
2023-01-07T02:06:50.793Z,6.68
2023-01-07T02:09:17.321Z,5.95
2023-01-07T02:12:10.533Z,5.70
2023-01-07T02:15:03.818Z,5.97
2023-01-07T02:17:59.973Z,7.97
2023-01-07T02:20:44.893Z,9.18
2023-01-07T02:23:32.999Z,8.35
2023-01-07T02:26:37.320Z,6.03
2023-01-07T02:29:09.659Z,6.60
2023-01-07T02:32:02.385Z,5.55
2023-01-07T02:34:43.632Z,5.90
2023-01-07T02:37:43.771Z,5.30
2023-01-07T02:40:22.199Z,5.30
2023-01-07T02:42:57.893Z,5.65
2023-01-07T02:45:30.468Z,5.95
2023-01-07T02:48:01.513Z,6.78
2023-01-07T02:50:28.110Z,7.40
2023-01-07T02:52:54.697Z,10.32
2023-01-07T02:55:31.284Z,9.70
2023-01-07T02:58:19.311Z,10.48
2023-01-07T03:01:23.234Z,10.90
2023-01-07T03:04:04.783Z,9.05
2023-01-07T03:06:46.401Z,8.80
2023-01-07T03:09:25.053Z,9.07
2023-01-07T03:12:18.008Z,7.65
2023-01-07T03:14:48.177Z,8.93
2023-01-07T03:17:20.539Z,8.88
2023-01-07T03:19:57.746Z,8.18
2023-01-07T03:22:28.356Z,7.25
2023-01-07T03:24:58.087Z,7.07
2023-01-07T03:27:27.608Z,6.68
2023-01-07T03:29:56.073Z,5.82
2023-01-07T03:32:41.195Z,5.50
2023-01-07T03:35:08.709Z,5.72
2023-01-07T03:37:35.473Z,6.35
2023-01-07T03:40:06.597Z,6.75
2023-01-07T03:42:42.072Z,6.32
2023-01-07T03:45:17.682Z,6.22
2023-01-07T03:47:47.907Z,6.30
2023-01-07T03:50:15.739Z,8.40
2023-01-07T03:52:42.725Z,9.02
2023-01-07T03:55:10.745Z,8.55
2023-01-07T03:57:37.875Z,6.53
2023-01-07T04:00:06.606Z,5.53
2023-01-07T04:02:33.374Z,5.22
2023-01-07T04:04:59.954Z,6.40
2023-01-07T04:07:26.513Z,5.15
2023-01-07T04:09:53.034Z,4.43
2023-01-07T04:12:19.673Z,4.20
2023-01-07T04:14:46.239Z,6.80
2023-01-07T04:17:12.800Z,8.20
2023-01-07T04:19:39.927Z,9.13
2023-01-07T04:22:07.821Z,9.70
2023-01-07T04:24:34.417Z,10.07
2023-01-07T04:27:01.119Z,6.78
2023-01-07T04:29:27.720Z,8.65
2023-01-07T04:31:54.320Z,6.82
2023-01-07T04:34:20.872Z,7.25
2023-01-07T04:36:47.857Z,11.60
2023-01-07T04:39:14.732Z,8.95
2023-01-07T04:41:41.352Z,11.73
2023-01-07T04:44:08.055Z,9.15
2023-01-07T04:46:34.740Z,9.23
2023-01-07T04:49:01.482Z,9.60
2023-01-07T04:51:28.105Z,9.95
2023-01-07T04:53:56.556Z,6.28
2023-01-07T04:56:23.280Z,5.65
2023-01-07T04:58:49.860Z,4.78
2023-01-07T05:01:16.519Z,4.07
2023-01-07T05:03:43.159Z,5.20
2023-01-07T05:06:10.113Z,3.60
2023-01-07T05:08:36.669Z,5.22
2023-01-07T05:11:04.832Z,8.60
2023-01-07T05:13:32.044Z,8.77
2023-01-07T05:18:25.052Z,8.02
2023-01-07T05:20:51.619Z,8.38
2023-01-07T05:23:18.163Z,17.05
2023-01-07T05:25:44.681Z,24.88
2023-01-07T05:28:12.269Z,16.33
2023-01-07T05:30:39.550Z,23.63
2023-01-07T05:33:07.361Z,24.02
2023-01-07T05:35:34.935Z,18.48
2023-01-07T05:38:01.533Z,16.77
2023-01-07T05:40:28.174Z,16.30
2023-01-07T05:42:54.777Z,16.65
2023-01-07T05:45:21.887Z,12.38
2023-01-07T05:47:49.256Z,12.93
2023-01-07T05:50:15.989Z,13.70
2023-01-07T05:52:42.559Z,14.85
2023-01-07T05:55:09.501Z,14.15
2023-01-07T05:57:36.076Z,12.95
2023-01-07T06:00:03.170Z,12.65
2023-01-07T06:02:29.727Z,12.55
2023-01-07T06:04:56.299Z,14.82
2023-01-07T06:07:22.877Z,10.82
2023-01-07T06:09:49.435Z,14.80
2023-01-07T06:12:16.038Z,11.50
2023-01-07T06:14:42.637Z,10.05
2023-01-07T06:17:09.260Z,7.18
2023-01-07T06:19:35.796Z,10.20
2023-01-07T06:22:02.395Z,11.80
2023-01-07T06:24:28.983Z,13.75
2023-01-07T06:26:55.570Z,13.85
2023-01-07T06:29:22.138Z,23.63
2023-01-07T06:31:48.727Z,20.95
2023-01-07T06:34:15.419Z,23.73
2023-01-07T06:36:41.948Z,19.40
2023-01-07T06:39:08.534Z,23.15
2023-01-07T06:41:35.131Z,32.72
2023-01-07T06:44:01.706Z,34.25
2023-01-07T06:46:28.438Z,44.53
2023-01-07T06:48:55.486Z,32.30
2023-01-07T06:51:23.290Z,36.38
2023-01-07T06:53:49.883Z,32.75
2023-01-07T06:56:16.494Z,35.90
2023-01-07T06:58:43.066Z,33.92
2023-01-07T07:01:09.809Z,40.63
2023-01-07T07:03:36.473Z,41.83
2023-01-07T07:06:03.344Z,35.55
2023-01-07T07:08:29.963Z,29.33
2023-01-07T07:10:56.533Z,24.40
2023-01-07T07:13:23.096Z,31.80
2023-01-07T07:15:49.962Z,22.00
2023-01-07T07:18:18.253Z,22.88
2023-01-07T07:20:48.444Z,19.70
2023-01-07T07:23:15.139Z,21.10
2023-01-07T07:25:42.450Z,15.60
2023-01-07T07:28:09.053Z,13.63
2023-01-07T07:30:46.188Z,13.43
2023-01-07T07:33:15.119Z,13.07
2023-01-07T07:35:42.051Z,13.73
2023-01-07T07:38:08.648Z,14.90
2023-01-07T07:40:35.264Z,16.15
2023-01-07T07:43:11.051Z,12.40
2023-01-07T07:45:40.811Z,12.38
2023-01-07T07:48:08.566Z,12.70
2023-01-07T07:50:35.817Z,13.00
2023-01-07T07:55:28.969Z,11.50
2023-01-07T07:57:57.288Z,12.00
2023-01-07T08:00:24.294Z,11.35
2023-01-07T08:02:51.142Z,13.13
2023-01-07T08:05:17.941Z,10.63
2023-01-07T08:07:44.521Z,11.68
2023-01-07T08:10:11.141Z,11.43
2023-01-07T08:12:38.800Z,13.07
2023-01-07T08:15:07.097Z,10.43
2023-01-07T08:17:34.046Z,12.68
2023-01-07T08:20:00.643Z,12.35
2023-01-07T08:22:27.265Z,13.68
2023-01-07T08:24:53.827Z,11.07
2023-01-07T08:27:21.087Z,13.15
2023-01-07T08:32:14.195Z,12.68
2023-01-07T08:34:40.789Z,10.77
2023-01-07T08:37:07.389Z,11.20
2023-01-07T08:39:33.991Z,8.65
2023-01-07T08:42:00.608Z,11.00
2023-01-07T08:44:27.268Z,10.85
2023-01-07T08:46:54.546Z,8.20
2023-01-07T08:51:47.785Z,9.98
2023-01-07T08:54:14.522Z,9.82
2023-01-07T08:56:41.133Z,10.68
2023-01-07T08:59:07.735Z,10.88
2023-01-07T09:01:34.508Z,8.00
2023-01-07T09:04:01.066Z,10.18
2023-01-07T09:06:27.672Z,10.68
2023-01-07T09:08:54.255Z,9.85
2023-01-07T09:11:20.875Z,8.40
2023-01-07T09:13:47.544Z,10.48
2023-01-07T09:16:14.176Z,7.00
2023-01-07T09:18:40.807Z,8.13
2023-01-07T09:21:07.386Z,6.30
2023-01-07T09:23:34.045Z,8.60
2023-01-07T09:26:00.667Z,10.50
2023-01-07T09:28:27.270Z,9.70
2023-01-07T09:30:56.699Z,9.25
2023-01-07T09:33:23.779Z,8.75
2023-01-07T09:35:50.326Z,8.52
2023-01-07T09:38:16.869Z,9.10
2023-01-07T09:40:45.165Z,8.15
2023-01-07T09:43:17.898Z,8.15
2023-01-07T09:45:49.548Z,7.18
2023-01-07T09:48:30.203Z,6.70
2023-01-07T09:51:06.019Z,6.20
2023-01-07T09:53:50.252Z,6.43
2023-01-07T09:56:25.119Z,6.18
2023-01-07T09:58:51.957Z,6.65
2023-01-07T10:01:25.138Z,7.88
2023-01-07T10:04:16.108Z,12.63
2023-01-07T10:07:00.397Z,11.70
2023-01-07T10:09:57.896Z,16.35
2023-01-07T10:12:42.711Z,15.55
2023-01-07T10:15:27.228Z,10.60
2023-01-07T10:17:59.844Z,7.97
2023-01-07T10:20:52.668Z,7.55
2023-01-07T10:23:51.800Z,8.23
2023-01-07T10:26:38.631Z,5.85
2023-01-07T10:29:12.358Z,6.15
2023-01-07T10:31:39.796Z,7.20
2023-01-07T10:34:14.423Z,7.47
2023-01-07T10:37:00.838Z,5.88
2023-01-07T10:39:50.777Z,7.07
2023-01-07T10:42:29.863Z,6.47
2023-01-07T10:45:40.811Z,5.40
2023-01-07T10:48:22.784Z,5.38
2023-01-07T10:51:02.389Z,5.05
2023-01-07T10:53:31.861Z,4.82
2023-01-07T10:56:20.392Z,4.65
2023-01-07T10:58:49.318Z,4.63
2023-01-07T11:01:22.896Z,4.40
2023-01-07T11:03:55.235Z,8.13
2023-01-07T11:06:36.554Z,6.50
2023-01-07T11:09:07.887Z,5.75
2023-01-07T11:11:35.363Z,4.95
2023-01-07T11:14:12.933Z,6.65
2023-01-07T11:17:06.310Z,7.57
2023-01-07T11:19:45.883Z,4.72
2023-01-07T11:22:34.046Z,7.57
2023-01-07T11:25:02.476Z,5.00
2023-01-07T11:27:32.298Z,6.20
2023-01-07T11:30:37.937Z,4.97
2023-01-07T11:33:13.855Z,7.95
2023-01-07T11:35:51.513Z,6.43
2023-01-07T11:38:44.570Z,4.30
2023-01-07T11:41:26.188Z,4.35
2023-01-07T11:43:54.668Z,5.65
2023-01-07T11:46:25.866Z,11.60
2023-01-07T11:49:01.050Z,5.55
2023-01-07T11:51:39.796Z,6.30
2023-01-07T11:54:21.926Z,4.45
2023-01-07T11:56:48.636Z,3.80
2023-01-07T11:59:26.768Z,19.20
2023-01-07T12:01:57.053Z,5.22
2023-01-07T12:04:28.712Z,4.35
2023-01-07T12:07:01.921Z,31.30
2023-01-07T12:09:31.461Z,4.25
2023-01-07T12:12:34.533Z,3.75
2023-01-07T12:15:05.225Z,3.78
2023-01-07T12:17:35.239Z,3.30
2023-01-07T12:20:28.027Z,3.50
2023-01-07T12:22:58.434Z,3.60
2023-01-07T12:25:46.814Z,3.88
2023-01-07T12:28:19.747Z,5.03
2023-01-07T12:30:52.204Z,4.55
2023-01-07T12:33:38.996Z,4.90
2023-01-07T12:36:15.744Z,3.72
2023-01-07T12:38:49.580Z,4.10
2023-01-07T12:41:27.239Z,4.25
2023-01-07T12:44:09.543Z,4.95
2023-01-07T12:46:41.820Z,4.28
2023-01-07T12:49:34.703Z,5.05
2023-01-07T12:52:12.016Z,5.15
2023-01-07T12:54:54.566Z,7.72
2023-01-07T12:57:38.001Z,5.53
2023-01-07T13:00:42.112Z,5.00
2023-01-07T13:03:45.710Z,4.80
2023-01-07T13:06:22.113Z,8.00
2023-01-07T13:08:58.851Z,4.30
2023-01-07T13:11:52.984Z,5.90
2023-01-07T13:14:26.057Z,8.95
2023-01-07T13:16:56.094Z,9.02
2023-01-07T13:19:22.737Z,4.50
2023-01-07T13:21:50.219Z,3.58
2023-01-07T13:24:56.281Z,4.05
2023-01-07T13:30:27.713Z,3.03
2023-01-07T13:33:05.500Z,3.67
2023-01-07T13:35:42.601Z,4.32
2023-01-07T13:38:40.002Z,3.92
2023-01-07T13:41:59.275Z,6.22
2023-01-07T13:44:54.802Z,6.30
2023-01-07T13:47:25.591Z,4.53
2023-01-07T13:50:01.667Z,4.68
2023-01-07T13:52:31.711Z,3.80
2023-01-07T13:55:22.480Z,4.00
2023-01-07T13:57:49.097Z,5.35
2023-01-07T14:00:39.463Z,3.17
2023-01-07T14:03:53.515Z,3.08
2023-01-07T14:06:20.338Z,4.72
2023-01-07T14:08:50.675Z,8.45
2023-01-07T14:11:42.272Z,9.60
2023-01-07T14:14:26.935Z,10.77
2023-01-07T14:16:59.213Z,12.88
2023-01-07T14:19:53.832Z,10.98
2023-01-07T14:22:20.301Z,19.58
2023-01-07T14:24:55.866Z,28.30
2023-01-07T14:27:47.196Z,12.90
2023-01-07T14:30:51.156Z,9.93
2023-01-07T14:33:19.507Z,7.30
2023-01-07T14:35:56.433Z,7.60
2023-01-07T14:38:32.237Z,6.03
2023-01-07T14:41:05.867Z,3.40
2023-01-07T14:43:46.027Z,3.35
2023-01-07T14:46:24.829Z,3.17
2023-01-07T14:49:03.633Z,3.95
2023-01-07T14:52:01.846Z,3.30
2023-01-07T14:54:59.544Z,4.88
2023-01-07T14:57:44.233Z,3.70
2023-01-07T15:00:54.877Z,3.38
2023-01-07T15:03:24.697Z,3.50
2023-01-07T15:06:09.846Z,3.20
2023-01-07T15:09:12.726Z,3.55
2023-01-07T15:12:00.526Z,3.30
2023-01-07T15:14:49.056Z,4.63
2023-01-07T15:17:16.903Z,6.47
2023-01-07T15:19:44.382Z,12.48
2023-01-07T15:22:25.939Z,12.50
2023-01-07T15:25:09.380Z,12.30
2023-01-07T15:27:50.796Z,10.60
2023-01-07T15:30:32.585Z,6.22
2023-01-07T15:33:20.707Z,4.03
2023-01-07T15:35:47.521Z,4.00
2023-01-07T15:38:27.649Z,4.45
2023-01-07T15:40:56.533Z,7.35
2023-01-07T15:43:26.768Z,5.50
2023-01-07T15:46:08.056Z,6.28
2023-01-07T15:48:34.646Z,5.07
2023-01-07T15:51:01.303Z,4.90
2023-01-07T15:53:29.597Z,5.65
2023-01-07T15:56:02.045Z,5.35
2023-01-07T15:58:44.970Z,5.50
2023-01-07T16:01:17.362Z,4.93
2023-01-07T16:03:44.777Z,4.00
2023-01-07T16:08:53.240Z,4.10
2023-01-07T16:11:25.873Z,4.32
2023-01-07T16:13:57.506Z,4.90
2023-01-07T16:16:25.034Z,4.57
2023-01-07T16:18:59.717Z,5.35
2023-01-07T16:21:35.239Z,7.70
2023-01-07T16:24:01.928Z,5.80
2023-01-07T16:26:37.615Z,5.65
2023-01-07T16:29:16.783Z,4.43
2023-01-07T16:31:44.054Z,6.43
2023-01-07T16:37:02.627Z,5.13
2023-01-07T16:39:39.299Z,5.28
2023-01-07T16:42:23.007Z,6.22
2023-01-07T16:44:52.645Z,6.43
2023-01-07T16:47:24.845Z,7.03
2023-01-07T16:49:57.120Z,4.72
2023-01-07T16:52:31.590Z,4.50
2023-01-07T16:54:58.259Z,5.32
2023-01-07T16:57:30.644Z,5.88
2023-01-07T16:59:58.995Z,8.30
2023-01-07T17:02:32.721Z,7.03
2023-01-07T17:05:22.846Z,24.15
2023-01-07T17:07:54.887Z,22.42
2023-01-07T17:10:27.416Z,42.08
2023-01-07T17:13:15.759Z,13.80
2023-01-07T17:15:43.689Z,5.60
2023-01-07T17:18:13.093Z,4.65
2023-01-07T17:20:51.837Z,4.63
2023-01-07T17:23:27.620Z,4.75
2023-01-07T17:26:03.468Z,4.97
2023-01-07T17:28:32.983Z,5.03
2023-01-07T17:31:00.845Z,4.40
2023-01-07T17:33:27.715Z,4.55
2023-01-07T17:35:54.422Z,5.90
2023-01-07T17:38:21.127Z,5.45
2023-01-07T17:40:48.195Z,6.18
2023-01-07T17:43:35.387Z,5.45
2023-01-07T17:46:06.181Z,5.07
2023-01-07T17:48:33.398Z,5.45
2023-01-07T17:51:01.365Z,5.47
2023-01-07T17:53:34.057Z,5.15
2023-01-07T17:56:01.848Z,5.80
2023-01-07T17:58:33.691Z,5.13
2023-01-07T18:01:02.684Z,5.63
2023-01-07T18:03:29.445Z,5.18
2023-01-07T18:05:56.048Z,5.50
2023-01-07T18:08:22.604Z,4.95
2023-01-07T18:11:10.261Z,5.22
2023-01-07T18:13:36.885Z,5.28
2023-01-07T18:16:03.692Z,5.65
2023-01-07T18:18:30.307Z,6.25
2023-01-07T18:20:58.158Z,7.03
2023-01-07T18:23:25.052Z,5.53
2023-01-07T18:25:51.632Z,4.97
2023-01-07T18:28:18.159Z,3.80
2023-01-07T18:30:44.720Z,5.00
2023-01-07T18:33:11.860Z,4.05
2023-01-07T18:35:41.720Z,5.07
2023-01-07T18:38:13.323Z,5.13
2023-01-07T18:40:40.166Z,5.72
2023-01-07T18:43:07.367Z,5.70
2023-01-07T18:48:00.408Z,4.57
2023-01-07T18:50:27.099Z,5.30
2023-01-07T18:52:53.678Z,3.90
2023-01-07T18:55:21.029Z,6.40
2023-01-07T18:57:47.671Z,5.60
2023-01-07T19:00:15.735Z,4.00
2023-01-07T19:02:42.330Z,5.35
2023-01-07T19:05:09.015Z,4.68
2023-01-07T19:07:36.215Z,5.13
2023-01-07T19:10:04.788Z,5.65
2023-01-07T19:12:31.387Z,5.43
2023-01-07T19:14:57.956Z,5.40
2023-01-07T19:17:24.599Z,4.22
2023-01-07T19:19:51.871Z,5.25
2023-01-07T19:24:45.132Z,5.95
2023-01-07T19:27:12.064Z,7.75
2023-01-07T19:29:38.670Z,6.45
2023-01-07T19:32:05.636Z,5.50
2023-01-07T19:34:32.247Z,5.32
2023-01-07T19:36:58.748Z,4.30
2023-01-07T19:39:25.334Z,6.80
2023-01-07T19:41:52.030Z,6.68
2023-01-07T19:44:18.701Z,5.18
2023-01-07T19:46:45.228Z,5.55
2023-01-07T19:49:13.457Z,4.28
2023-01-07T19:51:41.979Z,5.45
2023-01-07T19:54:11.824Z,5.90
2023-01-07T19:56:40.195Z,6.22
2023-01-07T19:59:07.060Z,6.88
2023-01-07T20:01:33.877Z,6.85
2023-01-07T20:04:01.001Z,7.53
2023-01-07T20:06:29.953Z,6.32
2023-01-07T20:08:58.535Z,6.63
2023-01-07T20:11:25.397Z,7.43
2023-01-07T20:13:52.055Z,4.93
2023-01-07T20:16:23.449Z,5.60
2023-01-07T20:18:52.608Z,4.78
2023-01-07T20:21:21.897Z,5.30
2023-01-07T20:23:49.062Z,5.40
2023-01-07T20:26:18.638Z,6.00
2023-01-07T20:28:45.663Z,5.82
2023-01-07T20:31:14.644Z,5.50
2023-01-07T20:33:42.402Z,5.80
2023-01-07T20:36:11.915Z,5.10
2023-01-07T20:38:39.505Z,5.10
2023-01-07T20:41:08.360Z,5.38
2023-01-07T20:43:36.115Z,5.70
2023-01-07T20:46:04.671Z,6.13
2023-01-07T20:48:31.874Z,5.60
2023-01-07T20:53:28.487Z,5.10
2023-01-07T20:55:59.541Z,5.22
2023-01-07T20:58:29.727Z,4.68
2023-01-07T21:00:56.468Z,5.30
2023-01-07T21:03:23.176Z,4.57
2023-01-07T21:05:49.843Z,5.10
2023-01-07T21:08:16.429Z,5.47
2023-01-07T21:10:43.784Z,5.05
2023-01-07T21:13:10.356Z,5.28
2023-01-07T21:15:38.532Z,5.28
2023-01-07T21:18:05.128Z,5.40
2023-01-07T21:20:31.883Z,5.07
2023-01-07T21:22:58.519Z,5.15
2023-01-07T21:25:25.068Z,5.43
2023-01-07T21:27:51.740Z,5.35
2023-01-07T21:30:19.401Z,4.72
2023-01-07T21:32:47.291Z,5.90
2023-01-07T21:35:14.763Z,5.15
2023-01-07T21:37:41.387Z,5.45
2023-01-07T21:40:08.501Z,4.80
2023-01-07T21:42:36.466Z,7.43
2023-01-07T21:45:03.351Z,4.65
2023-01-07T21:47:30.117Z,4.80
2023-01-07T21:49:56.928Z,4.43
2023-01-07T21:52:23.611Z,4.93
2023-01-07T21:54:51.926Z,5.07
2023-01-07T21:57:19.620Z,5.18
2023-01-07T21:59:46.371Z,5.18
2023-01-07T22:02:13.795Z,4.93
2023-01-07T22:04:40.895Z,5.28
2023-01-07T22:07:14.081Z,5.03
2023-01-07T22:09:40.848Z,4.82
2023-01-07T22:12:08.710Z,5.00
2023-01-07T22:14:35.268Z,4.53
2023-01-07T22:17:01.969Z,3.92
2023-01-07T22:19:28.703Z,5.05
2023-01-07T22:21:55.424Z,5.50
2023-01-07T22:24:22.117Z,5.25
2023-01-07T22:26:48.804Z,4.72
2023-01-07T22:29:16.413Z,5.00
2023-01-07T22:31:43.130Z,5.35
2023-01-07T22:34:10.332Z,5.13
2023-01-07T22:39:18.119Z,5.20
2023-01-07T22:41:45.949Z,5.10
2023-01-07T22:44:22.075Z,5.53
2023-01-07T22:46:50.965Z,4.20
2023-01-07T22:49:18.899Z,5.03
2023-01-07T22:51:48.389Z,5.35
2023-01-07T22:54:16.283Z,5.18
2023-01-07T22:56:44.208Z,5.18
2023-01-07T22:59:10.812Z,5.60
2023-01-07T23:01:38.249Z,5.72
2023-01-07T23:04:05.272Z,5.57
2023-01-07T23:06:31.926Z,5.13
2023-01-07T23:08:58.610Z,4.10
2023-01-07T23:11:43.808Z,5.55
2023-01-07T23:14:10.486Z,5.00
2023-01-07T23:16:37.644Z,5.78
2023-01-07T23:24:01.029Z,5.10
2023-01-07T23:26:27.588Z,5.47
2023-01-07T23:28:54.476Z,5.00
2023-01-07T23:31:21.175Z,5.18
2023-01-07T23:33:47.807Z,4.93
2023-01-07T23:36:14.436Z,5.30
2023-01-07T23:38:41.032Z,5.00
2023-01-07T23:41:09.517Z,4.88
2023-01-07T23:43:36.555Z,5.28
2023-01-07T23:46:05.931Z,4.90
2023-01-07T23:48:34.919Z,4.90
2023-01-07T23:51:13.813Z,5.20
2023-01-07T23:53:40.714Z,4.72
2023-01-07T23:56:08.197Z,5.35
2023-01-07T23:58:35.663Z,5.40
